Latest Weather Observations for Bankstown

IDN60801

Issued at 7:22 pm EST Wednesday 12 August 2020 (issued every 10 minutes, with the page automatically refreshed every 10 minutes)

About weather observations | Map of weather stations | Latest weather observations for NSW | Other Formats
Station Details ID: 066137 Name: BANKSTOWN AIRPORT AWS Lat: -33.92 Lon: 150.98 Height: 7.2 m
Data from the previous 72 hours. | See also: Recent months at Bankstown
Date/Time
EST
Temp
°C
App
Temp
°C
Dew
Point
°C
Rel
Hum
%
Delta-T
°C
Wind Press
QNH
hPa
Press
MSL
hPa
Rain since
9am
mm
Dir  Spd
km/h
Gust
km/h
Spd
kts
Gust
kts
12/07:00pm 12.6 12.7 10.1 85 1.3 CALM 0 0 0 0 1012.7 1012.7 0.0
12/06:30pm 13.3 13.5 10.7 84 1.4 CALM 0 0 0 0 1012.4 1012.4 0.0
12/06:00pm 14.3 14.5 10.5 78 2.0 CALM 0 0 0 0 1012.3 1012.3 0.0
12/05:30pm 15.3 15.5 10.7 74 2.4 CALM 0 0 0 0 1012.1 1012.1 0.0
12/05:00pm 15.7 16.1 11.3 75 2.4 CALM 0 0 0 0 1011.8 1011.8 0.0
12/04:30pm 16.9 16.9 9.8 63 3.7 CALM 0 0 0 0 1011.8 1011.8 0.0
12/04:00pm 16.9 17.1 10.5 66 3.4 CALM 0 0 0 0 1011.8 1011.8 0.0
12/03:30pm 17.4 17.1 10.1 62 3.9 NW 2 7 1 4 1011.8 1011.8 0.0
12/03:00pm 17.2 15.8 9.6 61 4.0 N 7 9 4 5 1012.0 1012.0 0.0
12/02:30pm 16.8 15.3 9.2 61 3.9 NNW 7 11 4 6 1012.2 1012.2 0.0
12/02:00pm 16.6 15.4 10.2 66 3.4 NW 7 9 4 5 1012.6 1012.6 0.0
12/01:30pm 16.6 15.8 9.5 63 3.7 NNW 4 9 2 5 1012.5 1012.5 0.0
12/01:00pm 16.7 15.4 9.9 64 3.6 WNW 7 11 4 6 1013.1 1013.1 0.0
12/12:30pm 16.7 14.4 9.1 61 3.9 NNW 11 17 6 9 1013.7 1013.7 0.0
12/12:00pm 16.2 14.3 9.2 63 3.6 NNW 9 11 5 6 1014.2 1014.2 0.0
12/11:30am 15.6 13.7 9.1 65 3.3 NW 9 15 5 8 1014.8 1014.8 0.0
12/11:00am 15.2 14.0 10.4 73 2.5 W 7 11 4 6 1015.3 1015.3 0.0
12/10:30am 13.7 12.1 10.1 79 1.9 W 9 11 5 6 1015.8 1015.8 0.0
12/10:00am 12.5 12.5 9.7 83 1.4 CALM 0 0 0 0 1016.5 1016.5 0.0
12/09:30am 11.3 9.8 9.0 86 1.1 WNW 7 9 4 5 1016.9 1016.9 0.0
12/09:00am 10.6 10.4 9.0 90 0.8 CALM 0 0 0 0 1017.1 1017.1 0.0
12/08:30am 9.9 9.7 9.0 94 0.4 CALM 0 0 0 0 1017.3 1017.3 0.0
12/08:00am 9.2 8.9 8.6 96 0.3 CALM 0 0 0 0 1017.0 1017.0 0.0
12/07:30am 8.4 7.9 7.8 96 0.3 CALM 0 0 0 0 1017.3 1017.3 0.0
12/07:00am 7.9 7.2 7.1 95 0.4 CALM 0 0 0 0 1016.9 1016.9 0.0
12/06:30am 8.2 7.6 7.4 95 0.4 CALM 0 0 0 0 1016.8 1016.8 0.0
12/06:00am 8.2 7.6 7.4 95 0.4 CALM 0 0 0 0 1016.8 1016.8 0.0
12/05:30am 8.5 8.0 7.7 95 0.4 CALM 0 0 0 0 1016.9 1016.9 0.0
12/05:00am 8.5 8.0 7.7 95 0.4 CALM 0 0 0 0 1016.9 1016.9 0.0
12/04:30am 8.5 8.0 7.7 95 0.4 CALM 0 0 0 0 1017.0 1017.0 0.0
12/04:00am 8.6 8.1 7.8 95 0.4 CALM 0 0 0 0 1017.0 1017.0 0.0
12/03:30am 8.6 8.1 7.7 94 0.4 CALM 0 0 0 0 1017.0 1017.0 0.0
12/03:00am 8.7 8.2 7.8 94 0.4 CALM 0 0 0 0 1017.1 1017.1 0.0
12/02:30am 8.9 8.4 8.0 94 0.4 CALM 0 0 0 0 1017.4 1017.4 0.0
12/02:00am 8.7 7.4 7.6 93 0.5 SE 4 7 2 4 1017.7 1017.7 0.0
12/01:30am 9.1 8.6 8.0 93 0.5 CALM 0 0 0 0 1018.2 1018.2 0.0
12/01:00am 9.0 8.5 7.9 93 0.5 CALM 0 9 0 5 1018.2 1018.2 0.0
12/12:30am 9.1 8.6 8.0 93 0.5 CALM 0 0 0 0 1018.7 1018.7 0.0
12/12:00am 9.1 8.6 7.9 92 0.6 CALM 0 0 0 0 1018.7 1018.7 0.0
 
Date/Time
EST
Temp
°C
App
Temp
°C
Dew
Point
°C
Rel
Hum
%
Delta-T
°C
Wind Press
QNH
hPa
Press
MSL
hPa
Rain since
9am
mm
Dir  Spd
km/h
Gust
km/h
Spd
kts
Gust
kts
11/11:30pm 9.2 7.6 8.1 93 0.5 WNW 6 9 3 5 1018.6 1018.6 0.0
11/11:00pm 9.3 8.9 8.1 92 0.6 CALM 0 0 0 0 1018.4 1018.4 0.0
11/10:30pm 9.5 9.1 8.1 91 0.7 CALM 0 6 0 3 1018.4 1018.4 0.0
11/10:00pm 9.7 8.1 8.1 90 0.8 N 6 9 3 5 1018.3 1018.3 0.0
11/09:30pm 9.8 9.3 7.9 88 0.9 CALM 0 0 0 0 1018.8 1018.8 0.0
11/09:00pm 10.1 9.6 7.9 86 1.1 CALM 0 0 0 0 1019.5 1019.5 0.0
11/08:30pm 12.5 10.0 8.2 75 2.1 NE 11 13 6 7 1019.3 1019.3 0.0
11/08:00pm 13.0 10.6 8.5 74 2.2 ENE 11 13 6 7 1018.9 1018.9 0.0
11/07:30pm 13.2 11.2 8.7 74 2.3 ENE 9 11 5 6 1019.0 1019.0 0.0
11/07:00pm 13.4 11.0 8.7 73 2.4 NE 11 13 6 7 1018.7 1018.7 0.0
11/06:30pm 13.8 11.0 8.6 71 2.6 ENE 13 15 7 8 1018.6 1018.6 0.0
11/06:00pm 14.1 11.7 8.5 69 2.8 NE 11 13 6 7 1018.3 1018.3 0.0
11/05:30pm 15.1 12.2 8.3 64 3.4 ENE 13 17 7 9 1017.9 1017.9 0.0
11/05:00pm 15.7 13.2 6.4 54 4.5 N 9 11 5 6 1017.9 1017.9 0.0
11/04:30pm 16.3 13.8 6.4 52 4.8 N 9 13 5 7 1017.9 1017.9 0.0
11/04:00pm 17.2 14.3 6.7 50 5.2 NNE 11 15 6 8 1017.9 1017.9 0.0
11/03:30pm 17.3 14.5 6.8 50 5.2 N 11 17 6 9 1018.0 1018.0 0.0
11/03:00pm 17.3 14.7 5.9 47 5.5 N 9 15 5 8 1018.3 1018.3 0.0
11/02:30pm 17.0 15.1 6.5 50 5.2 SSW 6 9 3 5 1018.4 1018.4 0.0
11/02:00pm 17.1 15.2 6.9 51 5.0 NW 6 13 3 7 1018.5 1018.5 0.0
11/01:30pm 16.2 14.3 6.9 54 4.6 SW 6 11 3 6 1018.6 1018.6 0.0
11/01:00pm 16.0 14.9 5.3 49 5.1 CALM 0 2 0 1 1019.1 1019.1 0.0
11/12:30pm 16.1 14.2 6.5 53 4.7 SW 6 13 3 7 1019.9 1019.9 0.0
11/12:00pm 15.8 13.3 6.5 54 4.5 NW 9 13 5 7 1020.6 1020.6 0.0
11/11:30am 15.6 13.4 7.9 60 3.9 WSW 9 15 5 8 1021.1 1021.1 0.0
11/11:00am 14.9 12.5 8.8 67 3.1 WSW 11 15 6 8 1021.4 1021.4 0.0
11/10:30am 14.1 12.2 8.9 71 2.6 W 9 13 5 7 1021.8 1021.8 0.0
11/10:00am 13.3 11.3 8.6 73 2.3 SW 9 13 5 7 1021.7 1021.7 0.0
11/09:30am 12.7 10.6 8.4 75 2.1 SSW 9 13 5 7 1021.8 1021.8 0.0
11/09:00am 12.2 10.1 8.3 77 1.9 WSW 9 15 5 8 1021.9 1021.9 1.4
11/08:30am 11.8 9.4 8.6 81 1.6 W 11 15 6 8 1021.8 1021.8 1.4
11/08:00am 11.2 9.1 8.2 82 1.5 WSW 9 13 5 7 1021.9 1021.9 1.4
11/07:30am 11.0 8.9 8.1 82 1.4 WSW 9 13 5 7 1022.1 1022.1 1.4
11/07:00am 10.9 9.1 8.1 83 1.4 WNW 7 11 4 6 1022.0 1022.0 1.4
11/06:30am 10.7 10.3 8.1 84 1.3 CALM 0 0 0 0 1021.8 1021.8 1.4
11/06:00am 10.7 10.3 8.1 84 1.3 CALM 0 0 0 0 1021.7 1021.7 1.4
11/05:30am 10.7 8.9 7.9 83 1.4 WSW 7 9 4 5 1021.3 1021.3 1.4
11/05:00am 10.8 10.3 7.9 82 1.4 CALM 0 0 0 0 1021.2 1021.2 1.4
11/04:30am 10.9 8.8 8.3 84 1.3 W 9 13 5 7 1021.1 1021.1 1.4
11/04:00am 10.9 8.8 8.3 84 1.3 WSW 9 15 5 8 1021.0 1021.0 1.4
11/03:30am 11.0 8.9 8.4 84 1.3 WSW 9 17 5 9 1020.9 1020.9 1.4
11/03:00am 10.9 8.4 8.3 84 1.3 WSW 11 15 6 8 1020.9 1020.9 1.4
11/02:30am 11.0 8.2 8.6 85 1.2 SW 13 19 7 10 1020.8 1020.8 1.4
11/02:00am 10.9 8.1 8.5 85 1.2 SW 13 20 7 11 1021.1 1021.1 1.4
11/01:30am 10.8 8.4 8.6 86 1.1 SW 11 15 6 8 1021.1 1021.1 1.4
11/01:00am 10.8 8.0 8.6 86 1.1 WSW 13 19 7 10 1021.0 1021.0 1.4
11/12:30am 10.7 7.9 8.5 86 1.1 SW 13 20 7 11 1020.9 1020.9 1.4
11/12:00am 10.6 7.8 8.5 87 1.0 SW 13 19 7 10 1020.8 1020.8 1.4
 
Date/Time
EST
Temp
°C
App
Temp
°C
Dew
Point
°C
Rel
Hum
%
Delta-T
°C
Wind Press
QNH
hPa
Press
MSL
hPa
Rain since
9am
mm
Dir  Spd
km/h
Gust
km/h
Spd
kts
Gust
kts
10/11:30pm 10.3 7.9 8.6 89 0.8 SW 11 17 6 9 1020.9 1020.9 1.4
10/11:00pm 10.3 7.9 8.6 89 0.8 WSW 11 15 6 8 1020.9 1020.9 1.4
10/10:30pm 10.5 8.0 8.4 87 1.0 WSW 11 17 6 9 1020.8 1020.8 1.4
10/10:00pm 10.5 7.7 8.6 88 0.9 SW 13 19 7 10 1021.1 1021.1 1.4
10/09:30pm 11.1 8.4 8.8 86 1.1 SW 13 24 7 13 1021.4 1021.4 1.4
10/09:00pm 10.7 8.3 8.6 87 1.0 WSW 11 15 6 8 1021.4 1021.4 1.4
10/08:30pm 10.8 8.4 8.7 87 1.0 WSW 11 19 6 10 1021.2 1021.2 1.4
10/08:00pm 11.2 9.0 9.3 88 0.9 WSW 11 15 6 8 1021.1 1021.1 1.4
10/07:30pm 10.8 8.5 9.1 89 0.8 SW 11 13 6 7 1020.9 1020.9 1.4
10/07:00pm 11.0 8.8 9.4 90 0.8 SW 11 15 6 8 1020.8 1020.8 1.4
10/06:30pm 11.8 9.2 9.4 85 1.2 S 13 19 7 10 1020.8 1020.8 1.2
10/06:00pm 11.5 10.8 9.9 90 0.8 SSW 4 11 2 6 1020.4 1020.4 1.0
10/05:30pm 11.4 10.1 10.1 92 0.7 SSE 7 9 4 5 1020.1 1020.1 1.0
10/05:29pm 11.5 10.3 10.2 92 0.7 SSE 7 9 4 5 1020.1 1020.1 1.0
10/05:14pm 11.5 9.9 10.1 91 0.7 S 9 11 5 6 1019.9 1019.9 0.8
10/05:00pm 11.5 9.1 9.9 90 0.8 SSW 13 19 7 10 1019.8 1019.8 0.6
10/04:42pm 11.5 7.7 9.8 89 0.9 SSW 20 28 11 15 1019.8 1019.8 0.6
10/04:30pm 11.8 7.6 9.9 88 1.0 SSW 22 33 12 18 1019.5 1019.5 0.2
10/04:00pm 12.2 8.0 9.6 84 1.3 S 22 35 12 19 1019.2 1019.2 0.2
10/03:30pm 13.5 8.5 9.6 77 2.0 SSW 26 41 14 22 1018.7 1018.7 0.0
10/03:00pm 15.0 9.8 8.7 66 3.2 SSW 26 41 14 22 1018.4 1018.4 0.0
10/02:34pm 15.9 9.3 7.9 59 4.0 S 32 52 17 28 1018.1 1018.1 0.0
10/02:30pm 15.9 9.7 7.7 58 4.1 S 30 46 16 25 1018.1 1018.1 0.0
10/02:00pm 14.6 7.0 7.4 62 3.5 S 37 57 20 31 1017.9 1017.9 0.0
10/01:30pm 15.7 9.8 7.5 58 4.1 S 28 46 15 25 1017.7 1017.7 0.0
10/01:00pm 16.2 9.6 7.7 57 4.3 S 32 52 17 28 1017.5 1017.5 0.0
10/12:35pm 16.0 8.1 7.7 58 4.2 S 39 59 21 32 1017.7 1017.7 0.0
10/12:30pm 15.8 8.1 7.3 57 4.2 S 37 59 20 32 1017.8 1017.8 0.0
10/12:11pm 15.1 9.3 7.9 62 3.6 S 28 50 15 27 1017.5 1017.5 0.0
10/12:00pm 15.2 10.5 9.3 68 3.0 S 24 41 13 22 1017.8 1017.8 0.0
10/11:50am 14.7 9.2 9.3 70 2.8 S 28 50 15 27 1017.9 1017.9 0.0
10/11:30am 14.0 8.4 10.2 78 2.0 S 30 41 16 22 1018.1 1018.1 0.0
10/11:02am 14.3 7.9 9.3 72 2.6 S 33 52 18 28 1017.7 1017.7 0.0
10/11:00am 14.2 7.3 9.0 71 2.6 S 35 52 19 28 1017.7 1017.7 0.0
10/10:44am 15.7 9.5 9.4 66 3.3 S 32 50 17 27 1017.5 1017.5 0.0
10/10:30am 15.3 8.4 9.0 66 3.2 S 35 50 19 27 1017.5 1017.5 0.0
10/10:02am 15.3 7.4 7.8 61 3.7 SSE 39 57 21 31 1016.9 1016.9 0.0
10/10:00am 15.6 7.8 8.4 62 3.6 SSE 39 56 21 30 1016.9 1016.9 0.0
10/09:32am 15.9 9.2 7.4 57 4.2 SSE 32 50 17 27 1016.6 1016.6 0.0
10/09:30am 15.8 9.0 7.6 58 4.1 SSE 33 50 18 27 1016.7 1016.7 0.0
10/09:00am 15.4 8.7 7.2 58 4.0 SSE 32 48 17 26 1016.0 1016.0 41.6
10/08:31am 14.6 7.8 7.6 63 3.5 SSE 33 54 18 29 1015.8 1015.8 41.6
10/08:30am 14.5 8.0 8.2 66 3.2 SSE 32 48 17 26 1015.8 1015.8 41.6
10/08:00am 13.6 7.2 9.3 75 2.2 S 33 52 18 28 1015.4 1015.4 41.6
10/07:56am 13.6 7.2 9.3 75 2.2 S 33 52 18 28 1015.2 1015.2 41.6
10/07:30am 14.2 8.7 9.2 72 2.5 S 28 41 15 22 1014.7 1014.7 41.4
10/07:15am 13.8 7.4 9.3 74 2.3 SSE 33 54 18 29 1014.5 1014.5 41.4
10/07:00am 13.6 7.9 9.8 78 2.0 SSE 30 43 16 23 1014.1 1014.1 41.4
10/06:38am 13.2 7.1 10.6 84 1.4 SSE 33 52 18 28 1013.9 1013.9 41.4
10/06:30am 13.1 6.6 10.5 84 1.4 SSE 35 52 19 28 1013.9 1013.9 41.4
10/06:03am 13.3 6.2 10.8 85 1.3 SSE 39 57 21 31 1013.2 1013.2 41.4
10/06:00am 13.3 6.2 10.8 85 1.3 SSE 39 56 21 30 1013.2 1013.2 41.4
10/05:54am 13.4 7.4 10.8 84 1.4 SSE 33 54 18 29 1013.0 1013.0 41.4
10/05:30am 13.2 6.9 11.1 87 1.1 SSE 35 56 19 30 1012.5 1012.5 41.4
10/05:13am 13.3 7.5 11.4 88 1.0 SSE 33 52 18 28 1012.1 1012.1 41.4
10/05:11am 13.2 7.3 11.3 88 1.0 SSE 33 52 18 28 1012.0 1012.0 41.4
10/05:06am 13.2 7.9 11.4 89 1.0 SSE 30 41 16 22 1012.0 1012.0 41.4
10/05:00am 13.2 8.4 11.6 90 0.9 S 28 41 15 22 1012.1 1012.1 41.4
10/04:55am 13.3 8.5 11.7 90 0.9 SSE 28 39 15 21 1011.9 1011.9 41.2
10/04:38am 13.4 8.2 11.6 89 1.0 SSE 30 46 16 25 1011.6 1011.6 40.6
10/04:30am 13.3 8.1 11.7 90 0.9 SSE 30 44 16 24 1011.4 1011.4 40.6
10/04:21am 13.2 8.0 11.6 90 0.9 SSE 30 44 16 24 1011.4 1011.4 40.4
10/04:03am 13.1 7.2 10.5 84 1.4 SSE 32 54 17 29 1010.9 1010.9 39.2
10/04:00am 13.9 8.9 10.9 82 1.6 SSE 28 44 15 24 1011.0 1011.0 39.0
10/03:30am 13.2 5.7 10.7 85 1.3 SSE 41 63 22 34 1010.6 1010.6 39.0
10/03:00am 13.3 7.1 11.4 88 1.0 SSE 35 57 19 31 1010.3 1010.3 39.0
10/02:53am 13.3 7.9 11.0 86 1.2 SSE 30 57 16 31 1010.3 1010.3 38.8
10/02:30am 13.1 8.2 11.3 89 1.0 SSE 28 37 15 20 1010.5 1010.5 38.6
10/02:03am 13.2 8.2 10.9 86 1.2 SSE 28 50 15 27 1010.6 1010.6 38.0
10/02:00am 13.2 8.9 10.7 85 1.3 SSE 24 50 13 27 1010.5 1010.5 37.8
10/01:30am 13.5 9.8 10.3 81 1.7 SSE 20 32 11 17 1010.5 1010.5 37.0
10/01:08am 13.8 8.5 10.0 78 2.0 SSE 28 46 15 25 1010.3 1010.3 37.0
10/01:00am 13.9 9.3 9.7 76 2.2 SSE 24 33 13 18 1010.1 1010.1 37.0
10/12:30am 13.6 8.8 10.2 80 1.8 SSE 26 33 14 18 1010.0 1010.0 37.0
10/12:00am 13.1 9.9 9.9 81 1.6 SSE 17 26 9 14 1009.7 1009.7 37.0
 
Date/Time
EST
Temp
°C
App
Temp
°C
Dew
Point
°C
Rel
Hum
%
Delta-T
°C
Wind Press
QNH
hPa
Press
MSL
hPa
Rain since
9am
mm
Dir  Spd
km/h
Gust
km/h
Spd
kts
Gust
kts
09/11:30pm 13.2 8.7 10.0 81 1.6 SSE 24 35 13 19 1009.2 1009.2 37.0
09/11:00pm 13.5 9.9 10.7 83 1.5 S 20 28 11 15 1009.3 1009.3 36.8
09/10:30pm 13.5 10.0 10.1 80 1.8 S 19 26 10 14 1009.1 1009.1 36.6
09/10:00pm 12.8 9.5 9.6 81 1.6 S 17 20 9 11 1008.8 1008.8 36.6
09/09:30pm 12.7 8.9 9.7 82 1.5 SSE 20 30 11 16 1008.3 1008.3 36.6
09/09:12pm 12.4 7.6 10.3 87 1.1 SSE 26 37 14 20 1007.8 1007.8 36.6
09/09:00pm 12.2 6.5 9.9 86 1.2 SSE 30 37 16 20 1007.3 1007.3 36.6
09/08:41pm 12.3 6.7 10.0 86 1.2 SSE 30 48 16 26 1006.8 1006.8 36.6
09/08:38pm 12.3 6.1 10.0 86 1.2 SSE 33 48 18 26 1006.7 1006.7 36.6
09/08:30pm 12.5 6.0 10.2 86 1.2 S 35 54 19 29 1006.4 1006.4 36.6
09/08:17pm 13.0 6.4 10.0 82 1.5 S 35 56 19 30 1005.2 1005.2 36.6
09/08:00pm 13.6 5.6 10.6 82 1.6 S 43 61 23 33 1003.2 1003.2 36.6
09/07:35pm 14.3 6.4 10.7 79 1.9 SSW 43 83 23 45 1001.4 1001.4 36.6
09/07:30pm 13.9 7.6 11.1 83 1.5 SW 35 57 19 31 1001.7 1001.7 36.6
09/07:29pm 13.8 7.9 11.1 84 1.4 SW 33 57 18 31 1001.7 1001.7 36.6

Other formats

Comma delimited format used in spreadsheet applications
http://www.bom.gov.au/fwo/IDN60801/IDN60801.94765.axf

JavaScript Object Notation format (JSON) in row-major order
http://www.bom.gov.au/fwo/IDN60801/IDN60801.94765.json

Data quality

Most of these data are generated automatically and are frequently updated. Quality checks on data are not normally performed. It is possible for incorrect values to appear. Refer to information at About Latest Weather Observations and please check the disclaimer before using these data.